Flight Track Log - Related Links

Times and Time Zones

All times are in EDT time to prevent confusion due to time zone crossing. See the UAL395 flight status page for this flight to view local times or setup timezone preferences in your user account.

Time Position Orientation Groundspeed Altitude Reporting Facility
EDT Latitude Longitude Course Direction KTS MPH feet Rate Location/Type
Wed 02:43:51 PM 38.9333 -77.5333 270° West 176 203 1,800  Level Potomac TRACON
Wed 02:44:51 PM 38.9167 -77.6000 252° West 226 260 4,500 2,485 Climbing Potomac TRACON
Wed 02:45:30 PM 38.8978 -77.6642 249° West 244 281 5,900 2,400 Climbing Washington Center
Wed 02:46:00 PM 38.8829 -77.9655 293° West  Level FlightAware Approximate
Wed 02:46:31 PM 38.8858 -77.7464 259° West 269 310 8,500  Level Washington Center
Wed 02:47:00 PM 38.9152 -78.0942 288° West  Level FlightAware Approximate
Wed 02:47:30 PM 38.8714 -77.8528 260° West 280 322 11,600  Level Washington Center
Wed 02:48:00 PM 38.9500 -78.2195 270° West  Level FlightAware Approximate
Wed 02:48:30 PM 38.8611 -77.9456 262° West 280 322 14,500  Level Washington Center
Wed 02:49:00 PM 38.9500 -78.3547 270° West  Level FlightAware Approximate
Wed 02:49:31 PM 38.8569 -78.0522 267° West 285 328 15,700  Level Washington Center
Wed 02:50:31 PM 38.8592 -78.1483 272° West 299 344 16,700 1,436 Climbing Washington Center
Wed 02:51:28 PM 38.8631 -78.2550 273° West 299 344 18,500 1,831 Climbing Washington Center
Wed 02:52:29 PM 38.8689 -78.3672 274° West 310 357 20,300 1,721 Climbing Washington Center
Wed 02:53:30 PM 38.8933 -78.4828 285° West 323 372 22,000 1,623 Climbing Washington Center
Wed 02:54:31 PM 38.9261 -78.5936 291° West 328 377 23,600 1,537 Climbing Washington Center
Wed 02:55:31 PM 38.9586 -78.7097 290° West 342 394 25,100 1,373 Climbing Washington Center
Wed 02:56:29 PM 38.9928 -78.8314 290° West 354 407 26,300 958 Climbing Washington Center
Wed 02:57:30 PM 39.0269 -78.9531 290° West 354 407 27,000 347 Climbing Washington Center
Wed 02:58:30 PM 39.0611 -79.0750 290° West 360 414 27,000 298 Level Washington Center
Wed 02:59:31 PM 39.0675 -79.2064 274° West 360 414 27,600 893 Climbing Washington Center
Wed 03:00:31 PM 39.0678 -79.3372 270° West 365 420 28,800 1,169 Climbing Washington Center
Wed 03:01:29 PM 39.0633 -79.4733 268° West 371 427 29,900 1,008 Climbing Washington Center
Wed 03:02:30 PM 39.0567 -79.6122 267° West 377 434 30,800 1,091 Climbing Washington Center
Wed 03:03:30 PM 39.0542 -79.7483 269° West 384 442 32,100 992 Climbing Washington Center
Wed 03:04:31 PM 39.0494 -79.8869 268° West 384 442 32,800 541 Climbing Washington Center
Wed 03:05:21 PM 39.0431 -80.0000 266° West 398 458 33,100 214 Climbing Indianapolis Center
Wed 03:06:23 PM 39.0369 -80.1625 267° West 422 486 33,200 339 Climbing Indianapolis Center
Wed 03:07:25 PM 39.0319 -80.3219 268° West 444 511 33,800 726 Climbing Indianapolis Center
Wed 03:08:27 PM 39.0694 -80.4711 288° West 450 518 34,700 968 Climbing Indianapolis Center
Wed 03:09:29 PM 39.1297 -80.6067 300° West 441 507 35,800 629 Climbing Indianapolis Center
Wed 03:10:31 PM 39.1883 -80.7419 299° West 436 502 36,000 97 Climbing Indianapolis Center
Wed 03:11:33 PM 39.2603 -80.9075 299° West 441 507 36,000  Level Indianapolis Center
Wed 03:12:35 PM 39.3183 -81.0461 298° West 441 507 36,000 48 Level Indianapolis Center
Wed 03:13:37 PM 39.3792 -81.1853 300° West 446 513 36,100  Climbing Indianapolis Center
Wed 03:14:39 PM 39.4367 -81.3236 298° West 440 506 36,000 -48 Descending Indianapolis Center
Wed 03:15:41 PM 39.4964 -81.4606 300° West 439 505 36,000  Level Indianapolis Center
Wed 03:16:43 PM 39.5539 -81.5997 298° West 440 506 36,000  Level Indianapolis Center
Wed 03:17:45 PM 39.6256 -81.7692 299° West 448 516 36,000  Level Indianapolis Center
Wed 03:18:47 PM 39.6842 -81.9119 298° West 449 517 36,000  Level Indianapolis Center
Wed 03:19:49 PM 39.7444 -82.0558 299° West 448 516 36,000  Level Indianapolis Center
Wed 03:20:51 PM 39.8047 -82.2006 299° West 450 518 36,000 -48 Level Indianapolis Center
Wed 03:21:53 PM 39.8636 -82.3444 298° West 449 517 35,900 -48 Descending Indianapolis Center
Wed 03:22:55 PM 39.9244 -82.4897 299° West 453 521 35,900  Level Indianapolis Center
Wed 03:23:57 PM 39.9936 -82.6611 298° West 456 525 35,900 49 Level Indianapolis Center
Wed 03:24:58 PM 40.0550 -82.8100 298° West 463 533 36,000 49 Climbing Indianapolis Center
Wed 03:26:00 PM 40.1150 -82.9597 298° West 465 535 36,000  Level Indianapolis Center
Wed 03:27:02 PM 40.1758 -83.1106 298° West 469 540 36,000  Level Indianapolis Center
Wed 03:28:04 PM 40.2356 -83.2608 298° West 467 537 36,000 -48 Level Indianapolis Center
Wed 03:29:06 PM 40.2947 -83.4100 298° West 461 531 35,900 -48 Descending Indianapolis Center
Wed 03:30:08 PM 40.3872 -83.5658 308° West 468 539 35,900 48 Level Indianapolis Center
Wed 03:31:10 PM 40.4717 -83.6931 311° West 463 533 36,000 -97 Climbing Indianapolis Center
Wed 03:32:12 PM 40.5578 -83.8211 312° West 464 534 35,700 -581 Descending Indianapolis Center
Wed 03:33:14 PM 40.6422 -83.9453 312° West 455 524 34,800 -823 Descending Indianapolis Center
Wed 03:34:16 PM 40.7228 -84.0797 308° West 464 534 34,000 -387 Descending Indianapolis Center
Wed 03:35:18 PM 40.7656 -84.2453 289° West 473 544 34,000 -48 Level Indianapolis Center
Wed 03:36:20 PM 40.8031 -84.4094 287° West 466 536 33,900 -48 Descending Indianapolis Center
Wed 03:37:22 PM 40.8581 -84.5956 291° West 465 535 33,900 48 Level Indianapolis Center
Wed 03:38:24 PM 40.9058 -84.7533 292° West 460 529 34,000  Climbing Indianapolis Center
Wed 03:39:26 PM 40.9525 -84.9092 292° West 453 521 33,900  Descending Indianapolis Center
Wed 03:40:28 PM 40.9981 -85.0614 292° West 453 521 34,000 48 Climbing Indianapolis Center
Wed 03:41:30 PM 41.0439 -85.2167 291° West 455 524 34,000  Level Indianapolis Center
Wed 03:42:32 PM 41.0897 -85.3703 292° West 452 520 34,000 -1,065 Level Indianapolis Center
Wed 03:43:34 PM 41.1444 -85.5575 291° West 456 525 31,800 -2,661 Descending Indianapolis Center
Wed 03:44:36 PM 41.1786 -85.7233 285° West 466 536 28,500 -2,661 Descending Indianapolis Center
Wed 03:45:38 PM 41.2097 -85.8886 284° West 465 535 26,300 -1,591 Descending Indianapolis Center
Wed 03:46:48 PM 41.2456 -86.0653 285° West 447 514 25,000 -591 Descending Chicago Center
Wed 03:47:50 PM 41.2875 -86.2261 289° West 454 522 25,000 -435 Level Chicago Center
Wed 03:48:52 PM 41.3261 -86.3842 288° West 449 517 24,100 -1,839 Descending Chicago Center
Wed 03:49:54 PM 41.3714 -86.5681 288° West 434 499 21,200 -3,242 Descending Chicago Center
Wed 03:50:56 PM 41.4089 -86.7211 288° West 435 501 17,400 -3,000 Descending Chicago Center
Wed 03:51:58 PM 41.4439 -86.8619 288° West 434 499 15,000 -2,468 Descending Chicago Center
Wed 03:53:00 PM 41.4861 -87.0314 288° West 406 467 12,300 -1,920 Descending Chicago Center
Wed 03:54:03 PM 41.5161 -87.1578 288° West 360 414 11,000 -624 Descending Chicago Center
Wed 03:55:05 PM 41.5789 -87.2569 310° West 349 402 11,000  Level Chicago Center
Wed 03:56:07 PM 41.6411 -87.3558 310° West 351 404 11,000  Level Chicago Center
Wed 03:57:09 PM 41.6917 -87.4569 304° West 327 376 11,000 -823 Level Chicago Center
Wed 03:58:11 PM 41.7425 -87.5650 302° West 292 336 9,300 -1,452 Descending Chicago Center
Wed 03:59:13 PM 41.8219 -87.5750 355° North 294 338 8,000 -774 Descending Chicago Center
Wed 04:00:15 PM 41.8892 -87.5333 25° Northeast 290 334 7,700 -339 Descending Chicago Center
Wed 04:01:17 PM 41.8856 -87.4333 93° East 269 310 7,300 -816 Descending Chicago Center
Wed 04:02:20 PM 41.9275 -87.3872 39° Northeast 229 264 6,000 -1,152 Descending Chicago Center
Wed 04:03:22 PM 41.9672 -87.4619 306° West 213 245 4,900 -484 Descending Chicago Center
Wed 04:04:24 PM 41.9686 -87.5422 271° West 223 257 5,000 -242 Climbing Chicago Center
Wed 04:05:26 PM 41.9686 -87.6208 270° West 215 247 4,400 -581 Descending Chicago Center

Login

Don't have an account? Register now (free) for customized features, flight alerts, and more!